Time;durP1;ratioP1;P1;durP2;ratioP2;P2;SDS_P1;SDS_P2;PMS_P1;PMS_P2;Temp;Humidity;BMP_temperature;BMP_pressure;BME280_temperature;BME280_humidity;BME280_pressure;Samples;Min_cycle;Max_cycle;Signal;HPM_P1;HPM_P2
2023/01/05 00:02:41;;;;;;;2.17;1.30;;;;;;;10.13;74.13;99591.98;2145831;82;32405;-61
2023/01/05 00:05:43;;;;;;;1.77;1.02;;;;;;;10.14;74.07;99581.17;2139305;83;34276;-61
2023/01/05 00:08:46;;;;;;;1.37;1.20;;;;;;;10.16;74.19;99575.75;2172402;82;30342;-61
2023/01/05 00:25:18;;;;;;;4.10;1.30;;;;;;;10.19;74.23;99542.08;2164308;82;30583;-62
2023/01/05 00:28:20;;;;;;;1.87;1.05;;;;;;;10.17;74.14;99540.84;2140721;83;27658;-62
2023/01/05 00:31:22;;;;;;;1.72;1.45;;;;;;;10.17;74.13;99535.50;2140528;83;29662;-62
2023/01/05 00:34:24;;;;;;;1.98;1.12;;;;;;;10.17;74.05;99552.05;2140340;82;31583;-62
2023/01/05 00:40:32;;;;;;;;;;;;;;;10.18;73.91;99537.22;2190620;81;27637;-61
2023/01/05 00:43:34;;;;;;;3.10;1.30;;;;;;;10.19;73.85;99546.97;2187107;81;27697;-57
2023/01/05 00:46:35;;;;;;;1.20;0.80;;;;;;;10.16;73.78;99528.41;2174842;81;29828;-57
2023/01/05 00:49:37;;;;;;;1.87;0.98;;;;;;;10.16;73.72;99526.23;2186517;81;32143;-58
2023/01/05 00:52:39;;;;;;;2.00;1.05;;;;;;;10.17;73.69;99534.65;2186205;81;34094;-57
2023/01/05 00:55:41;;;;;;;2.00;1.00;;;;;;;10.17;73.68;99523.45;2186496;81;29688;-59
2023/01/05 00:58:43;;;;;;;2.00;0.95;;;;;;;10.19;73.66;99528.23;2186285;81;27714;-59
2023/01/05 01:01:49;;;;;;;1.65;1.05;;;;;;;10.21;73.69;99522.77;2186056;81;29307;-58
2023/01/05 01:04:51;;;;;;;2.08;1.05;;;;;;;10.24;73.61;99520.41;2186635;81;31358;-59
2023/01/05 01:07:53;;;;;;;1.98;0.90;;;;;;;10.25;73.65;99524.81;2185916;81;34198;-59
2023/01/05 01:10:56;;;;;;;1.22;0.95;;;;;;;10.25;73.65;99514.95;2186144;81;29475;-57
2023/01/05 01:13:58;;;;;;;0.60;0.60;;;;;;;10.27;73.66;99509.49;2186228;81;27527;-58
2023/01/05 01:16:59;;;;;;;2.65;0.50;;;;;;;10.27;73.49;99513.05;2186506;81;29832;-58
2023/01/05 01:20:02;;;;;;;1.52;0.82;;;;;;;10.30;73.50;99506.17;2186111;81;32381;-59
2023/01/05 01:23:03;;;;;;;1.75;0.42;;;;;;;10.35;73.40;99507.22;2186291;81;33647;-58
2023/01/05 01:26:07;;;;;;;2.35;0.70;;;;;;;10.40;73.36;99502.95;2185921;81;30485;-58
2023/01/05 01:29:10;;;;;;;1.80;0.75;;;;;;;10.47;73.30;99511.84;2186558;81;27705;-58
2023/01/05 01:32:11;;;;;;;4.87;1.00;;;;;;;10.55;73.19;99508.69;2185932;81;29960;-58
2023/01/05 01:35:13;;;;;;;2.30;1.00;;;;;;;10.59;73.08;99503.52;2186339;81;31371;-60
2023/01/05 01:38:16;;;;;;;7.92;3.55;;;;;;;10.65;72.84;99494.23;2183120;81;33399;-57
2023/01/05 01:41:18;;;;;;;1.72;0.70;;;;;;;10.70;72.73;99500.64;2164620;82;29454;-58
2023/01/05 01:44:53;;;;;;;6.78;1.15;;;;;;;10.73;72.69;99501.79;2158552;82;27663;-57
2023/01/05 01:48:00;;;;;;;3.22;1.25;;;;;;;10.72;72.45;99502.28;2131650;83;28751;-58
2023/01/05 01:51:06;;;;;;;4.03;1.22;;;;;;;10.71;72.19;99497.87;2135158;83;31861;-57
2023/01/05 01:54:10;;;;;;;4.72;0.90;;;;;;;10.72;72.26;99492.03;2131770;83;32977;-57
2023/01/05 01:57:13;;;;;;;1.12;0.72;;;;;;;10.72;72.14;99495.59;2134848;83;29442;-57
2023/01/05 02:00:16;;;;;;;2.98;0.98;;;;;;;10.75;72.09;99511.47;2135041;83;27730;-57
2023/01/05 02:03:17;;;;;;;4.25;1.52;;;;;;;10.78;72.12;99492.99;2120448;83;29500;-57
2023/01/05 02:06:19;;;;;;;3.95;1.20;;;;;;;10.81;72.07;99496.82;2094784;85;31596;-57
2023/01/05 02:09:21;;;;;;;5.80;1.02;;;;;;;10.85;72.16;99494.80;2094041;85;34176;-57
2023/01/05 02:12:49;;;;;;;4.12;1.10;;;;;;;10.86;72.56;99498.70;2094289;85;30465;-58
2023/01/05 02:16:16;;;;;;;3.00;1.07;;;;;;;10.84;72.62;99495.75;2094614;85;27766;-58
2023/01/05 02:19:43;;;;;;;2.08;1.00;;;;;;;10.79;72.73;99499.58;2094538;85;28525;-58
2023/01/05 02:23:31;;;;;;;8.23;1.32;;;;;;;10.77;72.96;99496.13;2094281;83;32263;-59
2023/01/05 02:27:07;;;;;;;3.10;0.93;;;;;;;10.74;73.16;99495.48;2165250;82;32793;-58
2023/01/05 02:30:53;;;;;;;1.07;0.70;;;;;;;10.68;73.42;99493.17;2165358;82;30470;-60
2023/01/05 02:34:22;;;;;;;4.22;1.27;;;;;;;10.62;73.52;99489.07;2164359;82;27741;-60
2023/01/05 02:37:47;;;;;;;6.22;0.95;;;;;;;10.57;73.76;99489.86;2165019;82;28293;-59
2023/01/05 02:40:54;;;;;;;2.75;1.10;;;;;;;10.51;73.83;99476.34;2163037;82;32259;-58
2023/01/05 02:43:57;;;;;;;2.40;1.07;;;;;;;10.44;73.80;99467.84;2163559;82;33418;-60
2023/01/05 02:47:06;;;;;;;4.47;1.10;;;;;;;10.42;73.78;99462.22;2164934;82;30042;-64
2023/01/05 02:50:30;;;;;;;2.65;1.10;;;;;;;10.41;73.80;99466.72;2148623;82;27773;-58
2023/01/05 02:53:39;;;;;;;5.50;1.62;;;;;;;10.41;73.93;99468.52;2165238;82;28652;-66
2023/01/05 02:56:55;;;;;;;1.57;0.90;;;;;;;10.41;74.00;99473.88;2165273;82;31832;-62
2023/01/05 02:59:57;;;;;;;7.22;1.67;;;;;;;10.41;74.09;99473.88;2164871;82;33036;-62
2023/01/05 03:03:03;;;;;;;7.83;1.65;;;;;;;10.39;74.14;99479.80;2165745;82;30225;-59
2023/01/05 03:06:16;;;;;;;5.80;0.90;;;;;;;10.38;74.35;99486.98;2164826;82;27580;-58
2023/01/05 03:09:19;;;;;;;8.35;1.25;;;;;;;10.36;74.47;99512.08;2165423;82;28648;-59
2023/01/05 03:15:50;;;;;;;8.15;1.80;;;;;;;10.30;74.88;99524.91;2165107;82;33390;-60
2023/01/05 03:35:55;;;;;;;7.33;1.60;;;;;;;9.97;76.32;99515.30;2146657;82;30611;-58
2023/01/05 03:38:59;;;;;;;5.50;1.82;;;;;;;9.94;76.51;99511.92;2147727;82;27698;-57
2023/01/05 03:42:01;;;;;;;7.42;1.72;;;;;;;9.92;76.59;99511.17;2153311;82;29993;-57
2023/01/05 03:45:05;;;;;;;6.37;1.67;;;;;;;9.91;76.71;99506.28;2153931;82;31381;-59
2023/01/05 03:48:07;;;;;;;3.40;1.20;;;;;;;9.88;76.80;99514.48;2153557;82;33152;-61
2023/01/05 03:51:09;;;;;;;6.05;1.62;;;;;;;9.86;76.95;99534.66;2153749;82;29715;-57
2023/01/05 03:54:11;;;;;;;12.85;2.42;;;;;;;9.82;77.10;99549.16;2156884;81;27698;-57
2023/01/05 03:57:13;;;;;;;1.12;0.80;;;;;;;9.79;77.73;99553.84;2150302;82;29186;-57
2023/01/05 04:00:19;;;;;;;4.12;0.88;;;;;;;9.57;76.89;99525.66;2150112;82;30796;-57
2023/01/05 04:03:22;;;;;;;3.90;1.05;;;;;;;9.34;76.65;99527.86;2150006;82;33842;-57
2023/01/05 04:06:24;;;;;;;3.17;0.80;;;;;;;9.14;76.71;99528.13;2149751;82;30168;-58
2023/01/05 04:09:26;;;;;;;2.95;0.85;;;;;;;8.98;76.99;99526.31;2149913;82;27599;-60
2023/01/05 04:12:28;;;;;;;1.20;0.95;;;;;;;8.87;77.31;99512.20;2149735;82;29988;-57
2023/01/05 04:15:30;;;;;;;2.92;1.10;;;;;;;8.80;77.53;99526.84;2149708;82;31883;-57
2023/01/05 04:18:33;;;;;;;2.70;0.90;;;;;;;8.76;77.79;99535.50;2150076;82;33005;-57
2023/01/05 04:21:36;;;;;;;2.65;0.80;;;;;;;8.72;77.90;99539.77;2155275;81;30524;-58
2023/01/05 04:24:38;;;;;;;2.70;0.95;;;;;;;8.68;78.00;99528.84;2192096;81;27596;-56
2023/01/05 04:27:40;;;;;;;4.62;0.90;;;;;;;8.66;78.16;99531.61;2191800;81;28725;-57
2023/01/05 04:30:50;;;;;;;1.65;0.68;;;;;;;8.63;78.35;99537.96;2191989;81;32324;-58
2023/01/05 04:33:52;;;;;;;5.00;1.07;;;;;;;8.61;78.55;99536.33;2192208;81;33020;-57
2023/01/05 04:36:54;;;;;;;5.50;1.30;;;;;;;8.60;78.72;99534.61;2191658;81;30555;-56
2023/01/05 04:39:56;;;;;;;4.03;1.05;;;;;;;8.59;78.90;99528.87;2176264;81;27660;-56
2023/01/05 04:42:58;;;;;;;6.70;1.40;;;;;;;8.58;79.02;99516.02;2146787;82;29574;-57
2023/01/05 04:46:00;;;;;;;5.53;1.05;;;;;;;8.58;79.15;99524.48;2146464;82;31443;-57
2023/01/05 04:49:02;;;;;;;2.58;0.70;;;;;;;8.56;79.31;99511.23;2146743;82;33770;-57
2023/01/05 04:52:05;;;;;;;3.70;1.10;;;;;;;8.57;79.51;99512.95;2145028;82;30450;-59
2023/01/05 04:55:08;;;;;;;4.22;1.07;;;;;;;8.58;79.69;99515.13;2139451;82;27742;-57
2023/01/05 04:58:11;;;;;;;6.17;1.25;;;;;;;8.58;79.87;99513.34;2139725;83;28745;-57
2023/01/05 05:01:12;;;;;;;3.52;1.30;;;;;;;8.60;80.05;99500.77;2139652;83;31116;-58
2023/01/05 05:04:14;;;;;;;7.55;1.27;;;;;;;8.62;80.20;99510.88;2139617;83;34092;-57
2023/01/05 05:07:16;;;;;;;6.42;1.80;;;;;;;8.65;80.44;99515.20;2139334;83;30139;-57
2023/01/05 05:10:19;;;;;;;7.58;1.50;;;;;;;8.67;80.47;99524.00;2139746;82;27707;-57
2023/01/05 05:13:21;;;;;;;6.12;1.45;;;;;;;8.69;80.49;99511.39;2139338;83;29562;-57
2023/01/05 05:16:23;;;;;;;7.33;1.65;;;;;;;8.71;80.44;99519.34;2139425;83;31735;-60
2023/01/05 05:19:25;;;;;;;4.12;1.10;;;;;;;8.70;80.44;99530.48;2139682;82;34121;-57
2023/01/05 05:22:27;;;;;;;5.20;1.10;;;;;;;8.68;80.35;99519.05;2142818;82;29729;-56
2023/01/05 05:25:28;;;;;;;7.08;1.10;;;;;;;8.68;80.25;99523.51;2143132;82;27659;-57
2023/01/05 05:28:30;;;;;;;2.42;0.90;;;;;;;8.66;80.20;99522.27;2139987;83;29030;-58
2023/01/05 05:31:32;;;;;;;3.10;1.00;;;;;;;8.66;80.23;99515.59;2139330;82;31556;-57
2023/01/05 05:34:34;;;;;;;7.35;1.00;;;;;;;8.62;80.08;99512.69;2139473;82;34105;-58
2023/01/05 05:37:36;;;;;;;2.83;1.20;;;;;;;8.60;80.09;99525.26;2139206;83;30247;-57
2023/01/05 05:40:38;;;;;;;4.65;1.15;;;;;;;8.58;80.07;99528.02;2154061;81;27694;-57
2023/01/05 05:43:40;;;;;;;4.72;1.50;;;;;;;8.56;80.13;99537.92;2171512;82;29547;-59
2023/01/05 05:46:42;;;;;;;1.65;1.07;;;;;;;8.56;80.17;99533.03;2171054;82;32333;-59
2023/01/05 05:49:44;;;;;;;5.12;1.60;;;;;;;8.55;80.17;99535.31;2171143;82;34242;-59
2023/01/05 05:52:46;;;;;;;5.30;1.00;;;;;;;8.49;80.20;99530.72;2162755;82;29464;-58
2023/01/05 05:55:50;;;;;;;3.08;0.90;;;;;;;8.45;80.27;99538.45;2156581;82;27694;-64
2023/01/05 05:58:51;;;;;;;5.83;1.40;;;;;;;8.44;80.39;99537.22;2155762;81;30022;-57
2023/01/05 06:01:54;;;;;;;4.05;1.95;;;;;;;8.43;80.40;99544.83;2156233;81;32437;-58
2023/01/05 06:04:56;;;;;;;3.17;1.20;;;;;;;8.43;80.48;99547.02;2156096;81;34170;-61
2023/01/05 06:07:57;;;;;;;4.85;1.07;;;;;;;8.43;80.44;99547.50;2156148;81;30191;-63
2023/01/05 06:11:00;;;;;;;3.67;1.12;;;;;;;8.42;80.50;99533.27;2156359;82;28404;-58
2023/01/05 06:14:03;;;;;;;5.85;1.72;;;;;;;8.43;80.55;99541.67;2156133;81;29859;-57
2023/01/05 06:17:05;;;;;;;4.10;1.30;;;;;;;8.43;80.59;99540.83;2156547;82;31078;-61
2023/01/05 06:20:08;;;;;;;5.03;1.60;;;;;;;8.43;80.63;99544.83;2156042;81;34196;-57
2023/01/05 06:23:10;;;;;;;2.98;1.30;;;;;;;8.45;80.70;99548.25;2145062;82;30103;-57
2023/01/05 06:26:12;;;;;;;4.22;1.40;;;;;;;8.45;80.69;99548.25;2140350;82;27650;-57
2023/01/05 06:29:15;;;;;;;5.35;1.55;;;;;;;8.47;80.71;99553.92;2140576;82;28502;-56
2023/01/05 06:32:17;;;;;;;7.58;2.45;;;;;;;8.46;80.76;99546.86;2140248;83;32280;-57
2023/01/05 06:35:19;;;;;;;10.68;2.17;;;;;;;8.48;80.75;99550.80;2140217;83;33427;-57
2023/01/05 06:38:21;;;;;;;11.57;2.00;;;;;;;8.49;80.76;99557.86;2140818;82;29418;-61
2023/01/05 06:41:23;;;;;;;6.75;2.12;;;;;;;8.47;80.74;99553.92;2143840;82;27652;-58
2023/01/05 06:44:26;;;;;;;8.58;1.90;;;;;;;8.47;80.64;99549.92;2146163;82;29531;-63
2023/01/05 06:47:28;;;;;;;5.80;2.10;;;;;;;8.44;80.59;99551.89;2145736;82;32381;-58
2023/01/05 06:50:30;;;;;;;3.02;1.80;;;;;;;8.42;80.55;99553.78;2146207;82;32868;-57
2023/01/05 06:53:32;;;;;;;4.05;1.92;;;;;;;8.41;80.64;99550.72;2177470;81;29679;-57
2023/01/05 06:56:35;;;;;;;5.30;1.82;;;;;;;8.43;80.68;99559.52;2183620;81;27576;-58
2023/01/05 06:59:37;;;;;;;5.50;2.02;;;;;;;8.43;80.71;99555.02;2183749;81;29239;-56
2023/01/05 07:02:39;;;;;;;4.55;1.55;;;;;;;8.46;80.76;99556.66;2183403;81;32250;-58
2023/01/05 07:05:41;;;;;;;8.18;1.87;;;;;;;8.46;80.72;99559.32;2183317;81;33868;-63
2023/01/05 07:08:44;;;;;;;5.70;2.00;;;;;;;8.48;80.79;99558.80;2183856;81;29670;-60
2023/01/05 07:11:46;;;;;;;5.75;2.00;;;;;;;8.48;80.78;99557.02;2183845;81;27674;-62
2023/01/05 07:14:48;;;;;;;5.35;1.52;;;;;;;8.50;80.85;99552.92;2183667;81;28144;-59
2023/01/05 07:17:49;;;;;;;12.33;2.58;;;;;;;8.53;80.78;99558.10;2183726;81;31479;-59
2023/01/05 07:20:52;;;;;;;6.28;1.60;;;;;;;8.57;80.82;99566.34;2183537;81;33708;-61
2023/01/05 07:23:54;;;;;;;6.83;2.10;;;;;;;8.60;80.84;99568.86;2183774;81;29381;-58
2023/01/05 07:26:58;;;;;;;9.95;2.62;;;;;;;8.63;80.81;99571.83;2183477;81;27745;-59
2023/01/05 07:30:00;;;;;;;4.80;1.75;;;;;;;8.67;80.83;99564.05;2183839;81;29839;-59
2023/01/05 07:33:04;;;;;;;7.35;1.90;;;;;;;8.71;80.78;99571.41;2183399;81;32115;-57
2023/01/05 07:36:07;;;;;;;5.75;2.08;;;;;;;8.74;80.78;99570.77;2183799;81;33767;-56
2023/01/05 07:39:10;;;;;;;6.25;2.20;;;;;;;8.79;80.79;99574.06;2155932;81;30121;-62
2023/01/05 07:42:12;;;;;;;6.42;2.20;;;;;;;8.84;80.77;99565.80;2146046;82;27703;-59
2023/01/05 07:45:14;;;;;;;6.25;2.20;;;;;;;8.87;80.65;99570.09;2146270;82;28519;-56
2023/01/05 07:48:16;;;;;;;4.92;2.17;;;;;;;8.91;80.65;99570.33;2145916;82;31849;-57
2023/01/05 07:51:18;;;;;;;5.97;2.00;;;;;;;8.94;80.63;99579.02;2146475;81;33379;-57
2023/01/05 07:54:20;;;;;;;4.47;1.77;;;;;;;8.99;80.60;99585.47;2146288;83;29737;-57
2023/01/05 07:57:23;;;;;;;10.45;2.52;;;;;;;9.08;80.67;99582.77;2146126;83;27686;-56
2023/01/05 08:00:25;;;;;;;8.63;2.55;;;;;;;9.19;80.78;99583.03;2145938;82;29904;-58
2023/01/05 08:03:27;;;;;;;11.40;2.58;;;;;;;9.27;80.62;99579.44;2145931;82;32033;-57
2023/01/05 08:06:29;;;;;;;7.37;2.27;;;;;;;9.34;80.40;99577.31;2146327;82;33328;-57
2023/01/05 08:16:11;;;;;;;11.73;2.08;;;;;;;9.48;80.06;99589.87;2146044;83;29967;-56
2023/01/05 08:19:18;;;;;;;8.88;2.60;;;;;;;9.52;79.97;99580.74;2152422;81;31851;-57
2023/01/05 08:22:20;;;;;;;9.63;2.30;;;;;;;9.58;80.00;99582.20;2188052;81;34155;-58
2023/01/05 08:25:23;;;;;;;10.30;2.77;;;;;;;9.65;80.04;99594.28;2188050;81;29773;-57
2023/01/05 08:28:25;;;;;;;6.85;2.22;;;;;;;9.73;79.79;99590.67;2188161;81;27728;-56
2023/01/05 08:31:30;;;;;;;8.05;2.15;;;;;;;9.78;79.59;99594.42;2187687;81;30842;-57
2023/01/05 08:34:32;;;;;;;5.35;1.85;;;;;;;9.85;79.51;99601.15;2188161;81;31082;-58
2023/01/05 08:37:34;;;;;;;8.00;2.10;;;;;;;9.88;79.33;99598.30;2188107;81;32413;-60
2023/01/05 08:40:37;;;;;;;11.55;2.12;;;;;;;9.91;79.10;99593.23;2187600;80;30499;-60
2023/01/05 08:43:39;;;;;;;10.78;2.30;;;;;;;9.91;78.99;99595.91;2187789;81;27705;-61
2023/01/05 08:46:41;;;;;;;6.67;2.75;;;;;;;9.94;78.84;99605.56;2188110;81;29103;-57
2023/01/05 08:49:46;;;;;;;13.85;5.55;;;;;;;9.99;78.71;99593.67;2185631;81;31068;-63
2023/01/05 08:52:50;;;;;;;51.70;21.68;;;;;;;10.07;78.57;99601.24;2183613;81;32968;-60
2023/01/05 08:55:53;;;;;;;20.15;12.28;;;;;;;10.15;78.42;99604.31;2183665;81;30154;-57
2023/01/05 08:58:56;;;;;;;44.50;19.95;;;;;;;10.20;78.22;99604.03;2183270;81;27745;-57
2023/01/05 09:01:58;;;;;;;73.05;40.43;;;;;;;10.21;78.06;99604.42;2183567;81;29508;-57
2023/01/05 09:05:01;;;;;;;94.13;51.50;;;;;;;10.23;78.03;99600.33;2183215;81;32276;-57
2023/01/05 09:08:04;;;;;;;61.00;21.77;;;;;;;10.27;77.83;99605.41;2183540;81;33735;-57
2023/01/05 09:11:09;;;;;;;16.37;5.00;;;;;;;10.33;77.66;99609.06;2183547;81;30422;-56
2023/01/05 09:14:17;;;;;;;15.53;5.35;;;;;;;10.37;77.28;99612.41;2183567;81;28303;-61
2023/01/05 09:17:16;;;;;;;14.40;4.42;;;;;;;10.40;77.15;99608.70;2182438;81;28807;-58
2023/01/05 09:20:18;;;;;;;26.45;10.78;;;;;;;10.42;76.94;99613.04;2183528;81;31063;-58
2023/01/05 09:23:21;;;;;;;14.20;4.83;;;;;;;10.42;76.89;99609.02;2183463;81;33620;-56
2023/01/05 09:26:24;;;;;;;10.60;3.08;;;;;;;10.44;76.96;99623.16;2183469;81;30009;-59
2023/01/05 09:29:27;;;;;;;7.50;2.10;;;;;;;10.44;76.76;99623.16;2146966;81;28151;-58
2023/01/05 09:32:29;;;;;;;8.03;2.10;;;;;;;10.41;76.88;99631.86;2145857;83;30765;-57
2023/01/05 09:35:31;;;;;;;13.05;3.08;;;;;;;10.36;77.06;99644.61;2145765;82;31837;-57
2023/01/05 09:38:32;;;;;;;11.80;2.83;;;;;;;10.28;77.11;99646.41;2146387;83;33541;-57
2023/01/05 09:41:44;;;;;;;7.30;1.85;;;;;;;10.20;77.42;99657.56;2145633;83;29490;-58
2023/01/05 09:44:51;;;;;;;6.72;2.25;;;;;;;10.15;77.59;99657.00;2145846;82;27627;-59
2023/01/05 09:47:55;;;;;;;6.95;2.45;;;;;;;10.11;77.83;99652.27;2146093;82;28676;-58
2023/01/05 09:50:59;;;;;;;7.30;2.02;;;;;;;10.13;78.02;99661.57;2145767;82;32457;-57
2023/01/05 09:54:02;;;;;;;7.42;2.65;;;;;;;10.13;77.96;99662.91;2179659;81;32800;-60
2023/01/05 09:57:09;;;;;;;8.93;2.40;;;;;;;10.11;78.05;99666.14;2183554;81;29403;-57
2023/01/05 10:00:14;;;;;;;8.53;2.35;;;;;;;10.08;78.09;99657.83;2156367;81;27747;-58
2023/01/05 10:03:18;;;;;;;7.40;2.10;;;;;;;10.08;78.17;99656.50;2156253;81;28708;-57
2023/01/05 10:06:28;;;;;;;4.72;2.10;;;;;;;10.10;78.18;99663.08;2184550;81;31098;-58
2023/01/05 10:09:38;;;;;;;6.28;2.25;;;;;;;10.09;78.30;99660.02;2187539;81;34236;-57
2023/01/05 10:13:02;;;;;;;10.35;2.10;;;;;;;10.11;78.47;99660.30;2188025;81;29335;-57
2023/01/05 10:16:05;;;;;;;7.85;2.55;;;;;;;10.15;78.41;99659.67;2164504;81;27691;-57
2023/01/05 10:19:14;;;;;;;10.65;2.42;;;;;;;10.14;78.35;99655.27;2146195;82;28680;-56
2023/01/05 10:22:24;;;;;;;9.20;2.60;;;;;;;10.14;78.39;99648.58;2145277;82;30515;-59
2023/01/05 10:25:49;;;;;;;12.23;2.87;;;;;;;10.10;78.38;99641.18;2146002;82;33810;-59
2023/01/05 10:29:13;;;;;;;8.97;3.37;;;;;;;10.07;78.44;99638.70;2146725;82;29314;-57
2023/01/05 10:32:32;;;;;;;12.78;3.45;;;;;;;10.00;78.40;99639.55;2146430;82;27719;-57
2023/01/05 10:35:52;;;;;;;14.20;4.22;;;;;;;9.97;78.45;99645.07;2146855;83;29452;-57
2023/01/05 10:39:13;;;;;;;12.37;4.17;;;;;;;9.90;78.44;99659.73;2146364;82;31817;-57
2023/01/05 10:42:45;;;;;;;6.10;2.42;;;;;;;9.81;78.63;99699.91;2145502;82;33029;-57
2023/01/05 10:45:47;;;;;;;5.92;1.80;;;;;;;9.68;77.81;99712.25;2163159;81;30569;-57
2023/01/05 10:48:49;;;;;;;5.12;1.20;;;;;;;9.39;77.01;99717.39;2183542;81;27713;-57
2023/01/05 10:51:52;;;;;;;2.55;1.20;;;;;;;9.18;77.04;99716.75;2183336;81;28701;-58
2023/01/05 10:55:00;;;;;;;2.55;1.22;;;;;;;8.95;77.01;99714.81;2183732;81;31487;-57
2023/01/05 10:58:02;;;;;;;6.03;1.47;;;;;;;8.80;77.35;99717.34;2183752;81;33008;-57
2023/01/05 11:01:26;;;;;;;5.17;1.52;;;;;;;8.68;77.54;99713.09;2183570;81;29778;-58
2023/01/05 11:04:29;;;;;;;2.92;1.98;;;;;;;8.61;77.60;99704.53;2183789;81;27725;-58
2023/01/05 11:07:32;;;;;;;4.35;1.98;;;;;;;8.51;77.60;99706.35;2183706;81;28674;-60
2023/01/05 11:10:51;;;;;;;5.58;2.87;;;;;;;8.47;77.77;99719.87;2183652;81;31871;-57
2023/01/05 11:13:55;;;;;;;3.47;1.90;;;;;;;8.41;77.79;99702.38;2183902;81;32429;-58
2023/01/05 11:17:03;;;;;;;2.55;1.47;;;;;;;8.38;77.97;99696.33;2184043;81;29669;-58
2023/01/05 11:20:09;;;;;;;2.50;1.37;;;;;;;8.33;77.96;99691.23;2183883;81;27652;-57
2023/01/05 11:23:37;;;;;;;4.10;1.90;;;;;;;8.28;78.12;99692.77;2181735;81;29977;-57
2023/01/05 11:26:53;;;;;;;2.25;1.50;;;;;;;8.27;78.51;99695.08;2183809;81;31825;-60
2023/01/05 11:30:18;;;;;;;1.65;1.15;;;;;;;8.26;78.78;99697.35;2183576;81;33185;-57
2023/01/05 11:33:27;;;;;;;4.42;2.20;;;;;;;8.29;78.97;99697.66;2183676;81;29468;-57
2023/01/05 11:36:29;;;;;;;2.72;1.20;;;;;;;8.30;79.01;99704.23;2183887;81;27769;-57
2023/01/05 11:39:39;;;;;;;2.62;1.37;;;;;;;8.32;79.25;99702.84;2183316;81;29510;-57
2023/01/05 11:42:43;;;;;;;4.35;1.42;;;;;;;8.32;79.29;99689.02;2183214;81;31697;-57
2023/01/05 11:45:56;;;;;;;2.55;1.65;;;;;;;8.35;79.24;99699.55;2185714;81;33790;-57
2023/01/05 11:48:58;;;;;;;2.42;1.37;;;;;;;8.37;79.44;99702.13;2188008;81;30114;-58
2023/01/05 11:52:00;;;;;;;1.52;1.12;;;;;;;8.45;79.78;99693.73;2188014;81;27757;-58
2023/01/05 11:55:28;;;;;;;2.67;1.12;;;;;;;8.50;79.70;99695.73;2188100;81;29497;-58
2023/01/05 11:58:48;;;;;;;2.77;1.00;;;;;;;8.49;79.48;99698.01;2172485;81;31094;-57
2023/01/05 12:02:29;;;;;;;2.47;0.80;;;;;;;8.45;79.43;99702.62;2186329;81;32998;-58
2023/01/05 12:05:39;;;;;;;6.53;1.15;;;;;;;8.38;79.35;99693.17;2187683;81;30632;-69
2023/01/05 12:08:49;;;;;;;1.80;0.80;;;;;;;8.33;79.52;99692.56;2187819;81;27702;-60
2023/01/05 12:12:24;;;;;;;2.95;1.30;;;;;;;8.31;79.88;99692.62;2187619;81;28680;-58
2023/01/05 12:15:44;;;;;;;3.47;1.55;;;;;;;8.30;80.01;99704.23;2160205;81;31577;-57
2023/01/05 12:19:00;;;;;;;3.52;1.10;;;;;;;8.36;80.46;99697.72;2186872;81;33143;-57
2023/01/05 12:22:16;;;;;;;1.32;0.93;;;;;;;8.46;80.65;99703.47;2187913;81;29734;-58
2023/01/05 12:25:30;;;;;;;3.60;1.15;;;;;;;8.56;80.79;99713.24;2187956;81;27709;-57
2023/01/05 12:28:58;;;;;;;3.52;1.70;;;;;;;8.61;80.63;99717.40;2187961;81;28790;-57
2023/01/05 12:32:25;;;;;;;3.80;1.45;;;;;;;8.65;80.50;99726.14;2187633;81;31939;-63
2023/01/05 12:35:56;;;;;;;4.58;1.77;;;;;;;8.68;80.41;99730.00;2182470;81;32895;-60
2023/01/05 12:39:41;;;;;;;3.75;2.15;;;;;;;8.72;80.35;99736.03;2187997;81;29768;-58
2023/01/05 12:43:01;;;;;;;2.97;1.23;;;;;;;8.76;80.45;99732.27;2174768;81;27750;-58
2023/01/05 12:46:40;;;;;;;6.72;3.67;;;;;;;8.86;80.63;99729.50;2141782;82;29455;-57
2023/01/05 12:50:24;;;;;;;4.10;2.33;;;;;;;8.97;80.91;99723.12;2139288;83;31923;-57
2023/01/05 12:53:41;;;;;;;3.15;1.52;;;;;;;9.12;80.92;99715.23;2139566;83;32648;-57
2023/01/05 12:56:51;;;;;;;6.03;2.20;;;;;;;9.25;80.84;99715.00;2139204;83;30656;-57
2023/01/05 13:00:05;;;;;;;5.37;1.90;;;;;;;9.35;80.49;99720.69;2139772;82;27726;-57
2023/01/05 13:03:15;;;;;;;34.43;15.65;;;;;;;9.40;79.86;99712.44;2129883;83;28841;-57
2023/01/05 13:06:23;;;;;;;13.20;8.40;;;;;;;9.39;79.41;99716.06;2135008;83;32943;-60
2023/01/05 13:09:28;;;;;;;8.28;4.92;;;;;;;9.39;79.30;99706.70;2139664;83;33058;-56
2023/01/05 13:12:31;;;;;;;;;;;;;;;9.36;79.11;99705.53;2142041;83;29387;-56
2023/01/05 13:15:52;;;;;;;9.68;5.40;;;;;;;9.31;79.05;99708.45;2146652;82;27737;-58
2023/01/05 13:19:26;;;;;;;10.85;5.08;;;;;;;9.32;79.17;99713.31;2153772;82;29484;-59
2023/01/05 13:22:32;;;;;;;7.87;3.35;;;;;;;9.35;79.21;99715.83;2153165;82;31235;-57
2023/01/05 13:25:50;;;;;;;7.80;2.65;;;;;;;9.35;79.27;99722.02;2153540;82;32972;-61
2023/01/05 13:28:59;;;;;;;4.70;2.60;;;;;;;9.41;79.40;99721.70;2153569;82;30372;-57
2023/01/05 13:32:35;;;;;;;4.30;2.65;;;;;;;9.46;79.35;99712.09;2153305;82;27722;-62
2023/01/05 13:35:45;;;;;;;8.98;2.65;;;;;;;9.51;79.39;99711.37;2153141;82;29607;-61
2023/01/05 13:39:17;;;;;;;6.60;2.67;;;;;;;9.52;78.86;99718.91;2134718;82;45348;-57
2023/01/05 13:42:46;;;;;;;3.92;1.60;;;;;;;9.62;78.33;99701.88;2155098;81;34308;-57
2023/01/05 13:46:02;;;;;;;3.02;1.47;;;;;;;9.65;78.26;99715.97;2185098;81;29776;-62
2023/01/05 13:49:33;;;;;;;5.95;2.02;;;;;;;9.65;78.10;99712.41;2187654;81;27717;-62
2023/01/05 13:52:49;;;;;;;2.72;1.67;;;;;;;9.62;78.01;99728.63;2187247;81;29057;-58
2023/01/05 13:55:58;;;;;;;5.25;2.25;;;;;;;9.59;78.00;99732.34;2187504;81;31837;-64
2023/01/05 13:59:24;;;;;;;3.52;1.52;;;;;;;9.58;78.11;99740.86;2187112;81;34216;-70
2023/01/05 14:02:44;;;;;;;5.72;2.60;;;;;;;9.57;77.83;99736.91;2185955;81;29949;-58
2023/01/05 14:05:56;;;;;;;3.83;1.42;;;;;;;9.55;77.59;99749.50;2187616;81;27662;-61
2023/01/05 14:09:08;;;;;;;4.58;2.17;;;;;;;9.53;77.25;99754.94;2187078;81;29947;-62
2023/01/05 14:12:15;;;;;;;5.08;2.08;;;;;;;9.50;77.18;99756.92;2154609;81;31473;-66
2023/01/05 14:15:40;;;;;;;4.08;1.20;;;;;;;9.44;76.69;99775.47;2183752;81;34196;-60
2023/01/05 14:18:51;;;;;;;1.55;1.07;;;;;;;9.39;76.35;99774.88;2183370;81;33354;-63
2023/01/05 14:21:59;;;;;;;4.60;1.22;;;;;;;9.32;75.42;99774.34;2183126;81;27635;-63
2023/01/05 14:25:39;;;;;;;4.55;1.10;;;;;;;9.26;75.47;99791.56;2182616;81;29898;-63
2023/01/05 14:28:44;;;;;;;3.58;1.27;;;;;;;9.22;75.16;99791.33;1998079;89;31898;-61
2023/01/05 14:31:46;;;;;;;;;;;;;;;9.18;74.83;99796.92;1979534;89;33849;-65
2023/01/05 14:34:55;;;;;;;2.90;1.20;;;;;;;9.14;74.72;99810.05;1998120;89;29737;-63
2023/01/05 14:38:17;;;;;;;4.50;1.50;;;;;;;9.09;74.76;99819.64;1998243;89;27738;-63
2023/01/05 14:41:22;;;;;;;6.92;2.00;;;;;;;9.06;74.60;99813.11;1998151;89;28689;-60
2023/01/05 14:44:29;;;;;;;4.47;1.85;;;;;;;9.01;74.01;99814.69;1997841;88;31176;-61
2023/01/05 14:47:44;;;;;;;5.20;3.12;;;;;;;8.98;74.07;99820.19;1997077;89;33039;-61
2023/01/05 14:50:48;;;;;;;3.80;1.72;;;;;;;8.95;73.93;99824.34;1998524;89;29348;-60
2023/01/05 14:53:54;;;;;;;2.58;1.50;;;;;;;8.90;73.30;99827.70;1977643;89;28367;-59
2023/01/05 14:57:30;;;;;;;6.20;2.15;;;;;;;8.88;72.87;99843.82;1997637;89;29018;-64
2023/01/05 15:00:57;;;;;;;2.20;1.10;;;;;;;8.84;72.80;99853.41;1997744;89;31456;-59
2023/01/05 15:04:21;;;;;;;3.85;2.05;;;;;;;8.78;72.66;99860.77;2078371;81;33351;-58
2023/01/05 15:07:39;;;;;;;5.00;1.63;;;;;;;8.75;72.44;99860.92;2183241;81;30218;-58
2023/01/05 15:11:20;;;;;;;3.67;1.72;;;;;;;8.72;72.39;99864.22;2180912;81;28161;-61
2023/01/05 15:14:49;;;;;;;2.87;1.40;;;;;;;8.68;72.30;99871.98;2179854;81;29377;-59
2023/01/05 15:18:18;;;;;;;6.03;1.87;;;;;;;8.61;72.04;99879.42;2146160;82;31096;-60
2023/01/05 15:21:57;;;;;;;4.20;1.20;;;;;;;8.55;72.10;99895.28;2146115;82;33011;-60
2023/01/05 15:25:35;;;;;;;7.53;1.42;;;;;;;8.51;71.95;99897.69;2146138;82;29439;-57
2023/01/05 15:29:07;;;;;;;6.15;1.75;;;;;;;8.47;71.93;99899.61;2146543;82;27826;-63
2023/01/05 15:32:22;;;;;;;7.45;1.40;;;;;;;8.46;71.89;99914.34;2145860;83;29911;-61
2023/01/05 15:35:29;;;;;;;3.67;1.67;;;;;;;8.45;72.07;99918.84;2146029;83;31139;-62
2023/01/05 15:38:35;;;;;;;2.58;1.35;;;;;;;8.44;72.01;99927.78;2146292;83;33595;-60
2023/01/05 15:41:37;;;;;;;4.53;1.72;;;;;;;8.43;71.87;99934.05;2144215;82;29326;-59